Acton, Canada
Current Conditions -  °F | °C
As of 11:00 AM on Tuesday 27 Jan 2015 (Local Time) from CYKF Reporting Station
Light Snow Light Snow  
Wind Chill:   Ceiling: 3600
Heat Index: 10°   Visibility: 9mi
Dew Point:   Wind: 7mph
Humidity: 79%   Direction: 350°N
Pressure: 30.04"   Gusts: NA
Location:  43.63°N, 80.03°W
Report Text: CYKF 271600Z AUTO 35006KT 330V030 9SM -SN OVC036 M12/M15 A3004 RMK SLP195
Loading
Personal Weather Stations






























Interactive Weather Map New forecast layout! Learn more

10-Day Weather Forecast

Advertisements
Track Severe Weather on mobile